sensor_id;sensor_type;location;lat;lon;timestamp;P1;durP1;ratioP1;P2;durP2;ratioP2
14326;SDS011;7247;53.330;-1.180;2023-09-08T00:01:46;99.00;;;86.13;;
14326;SDS011;7247;53.330;-1.180;2023-09-08T00:04:13;95.60;;;84.83;;
14326;SDS011;7247;53.330;-1.180;2023-09-08T00:06:39;98.17;;;86.27;;
14326;SDS011;7247;53.330;-1.180;2023-09-08T00:09:06;111.37;;;94.40;;
14326;SDS011;7247;53.330;-1.180;2023-09-08T00:11:33;113.80;;;95.83;;
14326;SDS011;7247;53.330;-1.180;2023-09-08T00:14:00;118.33;;;99.07;;
14326;SDS011;7247;53.330;-1.180;2023-09-08T00:16:28;124.07;;;100.37;;
14326;SDS011;7247;53.330;-1.180;2023-09-08T00:18:55;115.10;;;96.87;;
14326;SDS011;7247;53.330;-1.180;2023-09-08T00:21:22;122.90;;;100.43;;
14326;SDS011;7247;53.330;-1.180;2023-09-08T00:23:48;115.20;;;98.87;;
14326;SDS011;7247;53.330;-1.180;2023-09-08T00:26:15;122.77;;;102.57;;
14326;SDS011;7247;53.330;-1.180;2023-09-08T00:28:41;123.43;;;100.30;;
14326;SDS011;7247;53.330;-1.180;2023-09-08T00:31:09;112.43;;;97.07;;
14326;SDS011;7247;53.330;-1.180;2023-09-08T00:33:35;114.93;;;96.70;;
14326;SDS011;7247;53.330;-1.180;2023-09-08T00:36:02;107.57;;;92.40;;
14326;SDS011;7247;53.330;-1.180;2023-09-08T00:38:29;114.47;;;95.83;;
14326;SDS011;7247;53.330;-1.180;2023-09-08T00:40:55;112.57;;;95.27;;
14326;SDS011;7247;53.330;-1.180;2023-09-08T00:43:21;117.93;;;99.17;;
14326;SDS011;7247;53.330;-1.180;2023-09-08T00:45:48;112.60;;;94.53;;
14326;SDS011;7247;53.330;-1.180;2023-09-08T00:48:16;111.13;;;95.73;;
14326;SDS011;7247;53.330;-1.180;2023-09-08T00:50:42;108.57;;;94.77;;
14326;SDS011;7247;53.330;-1.180;2023-09-08T00:53:10;108.90;;;95.13;;
14326;SDS011;7247;53.330;-1.180;2023-09-08T00:55:36;104.43;;;91.80;;
14326;SDS011;7247;53.330;-1.180;2023-09-08T00:58:04;104.03;;;91.50;;
14326;SDS011;7247;53.330;-1.180;2023-09-08T01:00:31;99.53;;;87.70;;
14326;SDS011;7247;53.330;-1.180;2023-09-08T01:02:58;105.40;;;89.40;;
14326;SDS011;7247;53.330;-1.180;2023-09-08T01:05:25;99.97;;;88.83;;
14326;SDS011;7247;53.330;-1.180;2023-09-08T01:07:52;98.87;;;85.17;;
14326;SDS011;7247;53.330;-1.180;2023-09-08T01:10:20;107.33;;;92.50;;
14326;SDS011;7247;53.330;-1.180;2023-09-08T01:12:47;110.03;;;93.97;;
14326;SDS011;7247;53.330;-1.180;2023-09-08T01:15:13;113.63;;;96.37;;
14326;SDS011;7247;53.330;-1.180;2023-09-08T01:17:40;113.47;;;95.37;;
14326;SDS011;7247;53.330;-1.180;2023-09-08T01:20:08;114.97;;;98.63;;
14326;SDS011;7247;53.330;-1.180;2023-09-08T01:22:45;118.40;;;99.07;;
14326;SDS011;7247;53.330;-1.180;2023-09-08T01:25:21;113.07;;;99.77;;
14326;SDS011;7247;53.330;-1.180;2023-09-08T01:27:49;110.27;;;98.07;;
14326;SDS011;7247;53.330;-1.180;2023-09-08T01:30:16;111.17;;;98.73;;
14326;SDS011;7247;53.330;-1.180;2023-09-08T01:32:43;117.03;;;100.07;;
14326;SDS011;7247;53.330;-1.180;2023-09-08T01:35:10;113.47;;;97.73;;
14326;SDS011;7247;53.330;-1.180;2023-09-08T01:37:39;111.77;;;99.07;;
14326;SDS011;7247;53.330;-1.180;2023-09-08T01:40:06;113.70;;;99.07;;
14326;SDS011;7247;53.330;-1.180;2023-09-08T01:42:34;121.37;;;103.17;;
14326;SDS011;7247;53.330;-1.180;2023-09-08T01:45:00;126.50;;;105.83;;
14326;SDS011;7247;53.330;-1.180;2023-09-08T01:47:27;113.57;;;97.93;;
14326;SDS011;7247;53.330;-1.180;2023-09-08T01:49:53;119.97;;;100.87;;
14326;SDS011;7247;53.330;-1.180;2023-09-08T01:52:20;107.33;;;95.47;;
14326;SDS011;7247;53.330;-1.180;2023-09-08T01:54:46;105.47;;;94.00;;
14326;SDS011;7247;53.330;-1.180;2023-09-08T01:57:13;107.93;;;91.93;;
14326;SDS011;7247;53.330;-1.180;2023-09-08T01:59:41;107.87;;;94.20;;
14326;SDS011;7247;53.330;-1.180;2023-09-08T02:02:07;110.63;;;97.73;;
14326;SDS011;7247;53.330;-1.180;2023-09-08T02:04:33;108.30;;;96.50;;
14326;SDS011;7247;53.330;-1.180;2023-09-08T02:07:00;110.67;;;96.87;;
14326;SDS011;7247;53.330;-1.180;2023-09-08T02:09:30;106.93;;;95.13;;
14326;SDS011;7247;53.330;-1.180;2023-09-08T02:11:56;112.67;;;99.07;;
14326;SDS011;7247;53.330;-1.180;2023-09-08T02:14:23;116.73;;;101.67;;
14326;SDS011;7247;53.330;-1.180;2023-09-08T02:16:50;122.90;;;104.67;;
14326;SDS011;7247;53.330;-1.180;2023-09-08T02:19:17;120.13;;;103.97;;
14326;SDS011;7247;53.330;-1.180;2023-09-08T02:21:43;121.73;;;104.67;;
14326;SDS011;7247;53.330;-1.180;2023-09-08T02:24:10;117.40;;;104.33;;
14326;SDS011;7247;53.330;-1.180;2023-09-08T02:26:37;127.90;;;107.27;;
14326;SDS011;7247;53.330;-1.180;2023-09-08T02:29:03;131.80;;;110.43;;
14326;SDS011;7247;53.330;-1.180;2023-09-08T02:31:30;131.50;;;114.47;;
14326;SDS011;7247;53.330;-1.180;2023-09-08T02:33:58;137.40;;;114.53;;
14326;SDS011;7247;53.330;-1.180;2023-09-08T02:36:24;137.77;;;115.37;;
14326;SDS011;7247;53.330;-1.180;2023-09-08T02:38:51;134.77;;;114.47;;
14326;SDS011;7247;53.330;-1.180;2023-09-08T02:41:17;134.43;;;112.27;;
14326;SDS011;7247;53.330;-1.180;2023-09-08T02:43:44;129.13;;;111.57;;
14326;SDS011;7247;53.330;-1.180;2023-09-08T02:46:10;137.83;;;116.20;;
14326;SDS011;7247;53.330;-1.180;2023-09-08T02:48:37;134.27;;;113.53;;
14326;SDS011;7247;53.330;-1.180;2023-09-08T02:51:05;134.93;;;113.30;;
14326;SDS011;7247;53.330;-1.180;2023-09-08T02:53:31;132.67;;;111.80;;
14326;SDS011;7247;53.330;-1.180;2023-09-08T02:55:58;120.10;;;104.30;;
14326;SDS011;7247;53.330;-1.180;2023-09-08T02:58:24;131.70;;;107.83;;
14326;SDS011;7247;53.330;-1.180;2023-09-08T03:00:51;132.37;;;109.37;;
14326;SDS011;7247;53.330;-1.180;2023-09-08T03:03:18;131.33;;;109.27;;
14326;SDS011;7247;53.330;-1.180;2023-09-08T03:05:44;139.03;;;112.77;;
14326;SDS011;7247;53.330;-1.180;2023-09-08T03:08:12;135.53;;;112.23;;
14326;SDS011;7247;53.330;-1.180;2023-09-08T03:10:39;126.70;;;108.70;;
14326;SDS011;7247;53.330;-1.180;2023-09-08T03:13:06;133.50;;;107.33;;
14326;SDS011;7247;53.330;-1.180;2023-09-08T03:15:34;129.83;;;107.83;;
14326;SDS011;7247;53.330;-1.180;2023-09-08T03:18:00;133.77;;;110.97;;
14326;SDS011;7247;53.330;-1.180;2023-09-08T03:20:27;144.83;;;115.40;;
14326;SDS011;7247;53.330;-1.180;2023-09-08T03:22:53;140.07;;;111.90;;
14326;SDS011;7247;53.330;-1.180;2023-09-08T03:25:21;143.90;;;115.50;;
14326;SDS011;7247;53.330;-1.180;2023-09-08T03:27:48;143.93;;;115.00;;
14326;SDS011;7247;53.330;-1.180;2023-09-08T03:30:14;154.17;;;115.53;;
14326;SDS011;7247;53.330;-1.180;2023-09-08T03:32:41;147.20;;;112.47;;
14326;SDS011;7247;53.330;-1.180;2023-09-08T03:35:08;143.90;;;113.87;;
14326;SDS011;7247;53.330;-1.180;2023-09-08T03:37:35;139.83;;;113.13;;
14326;SDS011;7247;53.330;-1.180;2023-09-08T03:40:01;147.93;;;113.30;;
14326;SDS011;7247;53.330;-1.180;2023-09-08T03:42:31;143.40;;;111.00;;
14326;SDS011;7247;53.330;-1.180;2023-09-08T03:44:59;147.53;;;115.23;;
14326;SDS011;7247;53.330;-1.180;2023-09-08T03:47:26;131.50;;;108.77;;
14326;SDS011;7247;53.330;-1.180;2023-09-08T03:49:52;131.00;;;107.00;;
14326;SDS011;7247;53.330;-1.180;2023-09-08T03:52:19;128.03;;;106.50;;
14326;SDS011;7247;53.330;-1.180;2023-09-08T03:54:46;136.17;;;108.73;;
14326;SDS011;7247;53.330;-1.180;2023-09-08T03:57:12;139.63;;;112.07;;
14326;SDS011;7247;53.330;-1.180;2023-09-08T03:59:40;148.40;;;114.90;;
14326;SDS011;7247;53.330;-1.180;2023-09-08T04:02:06;144.97;;;113.37;;
14326;SDS011;7247;53.330;-1.180;2023-09-08T04:04:33;151.93;;;113.30;;
14326;SDS011;7247;53.330;-1.180;2023-09-08T04:06:59;142.97;;;114.67;;
14326;SDS011;7247;53.330;-1.180;2023-09-08T04:09:25;150.90;;;113.13;;
14326;SDS011;7247;53.330;-1.180;2023-09-08T04:11:53;160.90;;;116.60;;
14326;SDS011;7247;53.330;-1.180;2023-09-08T04:14:20;160.17;;;115.27;;
14326;SDS011;7247;53.330;-1.180;2023-09-08T04:16:50;152.43;;;114.17;;
14326;SDS011;7247;53.330;-1.180;2023-09-08T04:19:16;132.70;;;105.50;;
14326;SDS011;7247;53.330;-1.180;2023-09-08T04:21:42;128.77;;;101.90;;
14326;SDS011;7247;53.330;-1.180;2023-09-08T04:24:09;128.00;;;103.20;;
14326;SDS011;7247;53.330;-1.180;2023-09-08T04:26:36;126.53;;;102.87;;
14326;SDS011;7247;53.330;-1.180;2023-09-08T04:29:02;127.23;;;104.10;;
14326;SDS011;7247;53.330;-1.180;2023-09-08T04:31:29;130.43;;;102.87;;
14326;SDS011;7247;53.330;-1.180;2023-09-08T04:33:57;132.00;;;105.57;;
14326;SDS011;7247;53.330;-1.180;2023-09-08T04:36:23;128.20;;;101.67;;
14326;SDS011;7247;53.330;-1.180;2023-09-08T04:38:50;132.27;;;102.70;;
14326;SDS011;7247;53.330;-1.180;2023-09-08T04:41:16;140.40;;;106.23;;
14326;SDS011;7247;53.330;-1.180;2023-09-08T04:43:42;121.10;;;97.90;;
14326;SDS011;7247;53.330;-1.180;2023-09-08T04:46:09;136.87;;;104.23;;
14326;SDS011;7247;53.330;-1.180;2023-09-08T04:48:35;129.77;;;98.93;;
14326;SDS011;7247;53.330;-1.180;2023-09-08T04:51:03;114.57;;;92.23;;
14326;SDS011;7247;53.330;-1.180;2023-09-08T04:53:29;112.97;;;91.40;;
14326;SDS011;7247;53.330;-1.180;2023-09-08T04:55:58;116.83;;;93.57;;
14326;SDS011;7247;53.330;-1.180;2023-09-08T04:58:24;133.80;;;99.63;;
14326;SDS011;7247;53.330;-1.180;2023-09-08T05:00:51;130.50;;;99.97;;
14326;SDS011;7247;53.330;-1.180;2023-09-08T05:03:17;136.70;;;100.50;;
14326;SDS011;7247;53.330;-1.180;2023-09-08T05:05:44;120.63;;;95.13;;
14326;SDS011;7247;53.330;-1.180;2023-09-08T05:08:12;112.40;;;93.67;;
14326;SDS011;7247;53.330;-1.180;2023-09-08T05:10:38;124.67;;;97.47;;
14326;SDS011;7247;53.330;-1.180;2023-09-08T05:13:05;130.50;;;98.80;;
14326;SDS011;7247;53.330;-1.180;2023-09-08T05:15:31;130.70;;;100.03;;
14326;SDS011;7247;53.330;-1.180;2023-09-08T05:17:58;141.53;;;104.47;;
14326;SDS011;7247;53.330;-1.180;2023-09-08T05:20:25;145.13;;;104.20;;
14326;SDS011;7247;53.330;-1.180;2023-09-08T05:22:52;144.23;;;105.67;;
14326;SDS011;7247;53.330;-1.180;2023-09-08T05:25:19;149.37;;;109.33;;
14326;SDS011;7247;53.330;-1.180;2023-09-08T05:27:46;161.73;;;115.47;;
14326;SDS011;7247;53.330;-1.180;2023-09-08T05:30:14;182.13;;;122.53;;
14326;SDS011;7247;53.330;-1.180;2023-09-08T05:32:40;181.63;;;126.80;;
14326;SDS011;7247;53.330;-1.180;2023-09-08T05:35:06;196.77;;;130.97;;
14326;SDS011;7247;53.330;-1.180;2023-09-08T05:37:33;203.57;;;138.20;;
14326;SDS011;7247;53.330;-1.180;2023-09-08T05:39:59;204.63;;;137.37;;
14326;SDS011;7247;53.330;-1.180;2023-09-08T05:42:27;197.97;;;137.77;;
14326;SDS011;7247;53.330;-1.180;2023-09-08T05:44:54;198.57;;;137.33;;
14326;SDS011;7247;53.330;-1.180;2023-09-08T05:47:20;204.13;;;139.53;;
14326;SDS011;7247;53.330;-1.180;2023-09-08T05:49:47;178.67;;;129.07;;
14326;SDS011;7247;53.330;-1.180;2023-09-08T05:52:13;174.57;;;128.47;;
14326;SDS011;7247;53.330;-1.180;2023-09-08T05:54:40;157.60;;;119.83;;
14326;SDS011;7247;53.330;-1.180;2023-09-08T05:57:06;151.53;;;116.70;;
14326;SDS011;7247;53.330;-1.180;2023-09-08T05:59:34;146.97;;;112.97;;
14326;SDS011;7247;53.330;-1.180;2023-09-08T06:02:00;140.47;;;112.50;;
14326;SDS011;7247;53.330;-1.180;2023-09-08T06:04:27;135.77;;;110.87;;
14326;SDS011;7247;53.330;-1.180;2023-09-08T06:06:53;135.07;;;109.57;;
14326;SDS011;7247;53.330;-1.180;2023-09-08T06:09:20;142.17;;;113.07;;
14326;SDS011;7247;53.330;-1.180;2023-09-08T06:11:46;138.83;;;109.83;;
14326;SDS011;7247;53.330;-1.180;2023-09-08T06:14:13;118.90;;;102.63;;
14326;SDS011;7247;53.330;-1.180;2023-09-08T06:16:40;127.00;;;107.43;;
14326;SDS011;7247;53.330;-1.180;2023-09-08T06:19:07;130.57;;;109.37;;
14326;SDS011;7247;53.330;-1.180;2023-09-08T06:21:33;123.23;;;105.20;;
14326;SDS011;7247;53.330;-1.180;2023-09-08T06:24:00;123.00;;;104.50;;
14326;SDS011;7247;53.330;-1.180;2023-09-08T06:26:26;118.07;;;103.00;;
14326;SDS011;7247;53.330;-1.180;2023-09-08T06:28:52;110.53;;;97.73;;
14326;SDS011;7247;53.330;-1.180;2023-09-08T06:31:19;98.97;;;85.57;;
14326;SDS011;7247;53.330;-1.180;2023-09-08T06:33:47;87.57;;;78.37;;
14326;SDS011;7247;53.330;-1.180;2023-09-08T06:36:16;83.70;;;75.10;;
14326;SDS011;7247;53.330;-1.180;2023-09-08T06:38:43;81.93;;;73.37;;
14326;SDS011;7247;53.330;-1.180;2023-09-08T06:41:09;84.37;;;75.70;;
14326;SDS011;7247;53.330;-1.180;2023-09-08T06:43:36;83.17;;;74.83;;
14326;SDS011;7247;53.330;-1.180;2023-09-08T06:46:03;77.63;;;69.97;;
14326;SDS011;7247;53.330;-1.180;2023-09-08T06:48:29;76.63;;;68.80;;
14326;SDS011;7247;53.330;-1.180;2023-09-08T06:50:57;77.47;;;69.53;;
14326;SDS011;7247;53.330;-1.180;2023-09-08T06:53:24;80.00;;;71.70;;
14326;SDS011;7247;53.330;-1.180;2023-09-08T06:55:50;76.57;;;68.97;;
14326;SDS011;7247;53.330;-1.180;2023-09-08T06:58:19;76.53;;;69.00;;
14326;SDS011;7247;53.330;-1.180;2023-09-08T07:00:45;73.33;;;66.13;;
14326;SDS011;7247;53.330;-1.180;2023-09-08T07:03:12;75.23;;;67.33;;
14326;SDS011;7247;53.330;-1.180;2023-09-08T07:05:38;78.00;;;69.87;;
14326;SDS011;7247;53.330;-1.180;2023-09-08T07:08:06;72.20;;;64.87;;
14326;SDS011;7247;53.330;-1.180;2023-09-08T07:10:33;72.97;;;65.87;;
14326;SDS011;7247;53.330;-1.180;2023-09-08T07:12:59;72.00;;;64.87;;
14326;SDS011;7247;53.330;-1.180;2023-09-08T07:15:26;73.30;;;66.20;;
14326;SDS011;7247;53.330;-1.180;2023-09-08T07:17:52;71.80;;;64.53;;
14326;SDS011;7247;53.330;-1.180;2023-09-08T07:20:18;72.93;;;65.80;;
14326;SDS011;7247;53.330;-1.180;2023-09-08T07:22:45;71.93;;;64.77;;
14326;SDS011;7247;53.330;-1.180;2023-09-08T07:25:13;70.63;;;63.60;;
14326;SDS011;7247;53.330;-1.180;2023-09-08T07:27:40;69.73;;;62.57;;
14326;SDS011;7247;53.330;-1.180;2023-09-08T07:30:06;69.33;;;62.63;;
14326;SDS011;7247;53.330;-1.180;2023-09-08T07:32:33;66.10;;;59.70;;
14326;SDS011;7247;53.330;-1.180;2023-09-08T07:34:59;64.80;;;58.50;;
14326;SDS011;7247;53.330;-1.180;2023-09-08T07:37:26;66.33;;;59.53;;
14326;SDS011;7247;53.330;-1.180;2023-09-08T07:39:52;63.93;;;57.87;;
14326;SDS011;7247;53.330;-1.180;2023-09-08T07:42:21;64.40;;;57.90;;
14326;SDS011;7247;53.330;-1.180;2023-09-08T07:44:48;63.63;;;57.23;;
14326;SDS011;7247;53.330;-1.180;2023-09-08T07:47:15;64.73;;;58.13;;
14326;SDS011;7247;53.330;-1.180;2023-09-08T07:49:45;64.80;;;58.00;;
14326;SDS011;7247;53.330;-1.180;2023-09-08T07:52:11;62.13;;;56.17;;
14326;SDS011;7247;53.330;-1.180;2023-09-08T07:54:37;63.43;;;57.47;;
14326;SDS011;7247;53.330;-1.180;2023-09-08T07:57:04;60.63;;;54.53;;
14326;SDS011;7247;53.330;-1.180;2023-09-08T07:59:32;58.57;;;52.93;;
14326;SDS011;7247;53.330;-1.180;2023-09-08T08:01:58;56.87;;;51.63;;
14326;SDS011;7247;53.330;-1.180;2023-09-08T08:04:24;57.03;;;51.43;;
14326;SDS011;7247;53.330;-1.180;2023-09-08T08:06:51;57.73;;;52.07;;
14326;SDS011;7247;53.330;-1.180;2023-09-08T08:09:17;56.50;;;51.27;;
14326;SDS011;7247;53.330;-1.180;2023-09-08T08:11:44;57.17;;;51.73;;
14326;SDS011;7247;53.330;-1.180;2023-09-08T08:14:10;57.50;;;52.07;;
14326;SDS011;7247;53.330;-1.180;2023-09-08T08:16:38;55.53;;;50.10;;
14326;SDS011;7247;53.330;-1.180;2023-09-08T08:19:04;56.60;;;51.23;;
14326;SDS011;7247;53.330;-1.180;2023-09-08T08:21:31;55.17;;;49.97;;
14326;SDS011;7247;53.330;-1.180;2023-09-08T08:23:57;52.53;;;47.43;;
14326;SDS011;7247;53.330;-1.180;2023-09-08T08:26:23;51.27;;;46.47;;
14326;SDS011;7247;53.330;-1.180;2023-09-08T08:28:53;50.53;;;45.87;;
14326;SDS011;7247;53.330;-1.180;2023-09-08T08:31:20;49.87;;;45.07;;
14326;SDS011;7247;53.330;-1.180;2023-09-08T08:33:47;48.40;;;43.90;;
14326;SDS011;7247;53.330;-1.180;2023-09-08T08:36:14;48.17;;;43.77;;
14326;SDS011;7247;53.330;-1.180;2023-09-08T08:38:40;47.03;;;42.83;;
14326;SDS011;7247;53.330;-1.180;2023-09-08T08:41:07;47.17;;;42.90;;
14326;SDS011;7247;53.330;-1.180;2023-09-08T08:43:33;46.40;;;42.10;;
14326;SDS011;7247;53.330;-1.180;2023-09-08T08:46:00;45.63;;;41.60;;
14326;SDS011;7247;53.330;-1.180;2023-09-08T08:48:26;44.67;;;40.57;;
14326;SDS011;7247;53.330;-1.180;2023-09-08T08:50:55;44.47;;;40.40;;
14326;SDS011;7247;53.330;-1.180;2023-09-08T08:53:22;44.43;;;40.33;;
14326;SDS011;7247;53.330;-1.180;2023-09-08T08:55:48;45.83;;;41.40;;
14326;SDS011;7247;53.330;-1.180;2023-09-08T08:58:15;45.37;;;40.83;;
14326;SDS011;7247;53.330;-1.180;2023-09-08T09:00:43;47.10;;;42.33;;
14326;SDS011;7247;53.330;-1.180;2023-09-08T09:03:10;43.73;;;39.63;;
14326;SDS011;7247;53.330;-1.180;2023-09-08T09:05:37;46.80;;;42.57;;
14326;SDS011;7247;53.330;-1.180;2023-09-08T09:08:05;46.37;;;41.80;;
14326;SDS011;7247;53.330;-1.180;2023-09-08T09:10:32;46.17;;;41.43;;
14326;SDS011;7247;53.330;-1.180;2023-09-08T09:12:58;46.77;;;42.47;;
14326;SDS011;7247;53.330;-1.180;2023-09-08T09:15:28;44.43;;;40.23;;
14326;SDS011;7247;53.330;-1.180;2023-09-08T09:18:04;46.40;;;42.00;;
14326;SDS011;7247;53.330;-1.180;2023-09-08T09:20:31;45.27;;;40.83;;
14326;SDS011;7247;53.330;-1.180;2023-09-08T09:22:57;44.73;;;40.60;;
14326;SDS011;7247;53.330;-1.180;2023-09-08T09:25:26;41.20;;;37.60;;
14326;SDS011;7247;53.330;-1.180;2023-09-08T09:27:53;44.07;;;39.77;;
14326;SDS011;7247;53.330;-1.180;2023-09-08T09:30:20;43.33;;;39.37;;
14326;SDS011;7247;53.330;-1.180;2023-09-08T09:32:46;41.43;;;37.83;;
14326;SDS011;7247;53.330;-1.180;2023-09-08T09:35:14;44.13;;;39.63;;
14326;SDS011;7247;53.330;-1.180;2023-09-08T09:37:41;43.87;;;39.47;;
14326;SDS011;7247;53.330;-1.180;2023-09-08T09:40:07;41.67;;;37.80;;
14326;SDS011;7247;53.330;-1.180;2023-09-08T09:42:38;41.43;;;37.50;;
14326;SDS011;7247;53.330;-1.180;2023-09-08T09:45:05;40.20;;;36.37;;
14326;SDS011;7247;53.330;-1.180;2023-09-08T09:47:32;39.33;;;35.83;;
14326;SDS011;7247;53.330;-1.180;2023-09-08T09:49:58;40.03;;;35.97;;
14326;SDS011;7247;53.330;-1.180;2023-09-08T09:52:25;40.87;;;36.97;;
14326;SDS011;7247;53.330;-1.180;2023-09-08T09:54:52;38.50;;;34.97;;
14326;SDS011;7247;53.330;-1.180;2023-09-08T09:57:20;36.93;;;33.63;;
14326;SDS011;7247;53.330;-1.180;2023-09-08T09:59:48;37.60;;;34.28;;
14326;SDS011;7247;53.330;-1.180;2023-09-08T10:02:16;39.05;;;35.03;;
14326;SDS011;7247;53.330;-1.180;2023-09-08T10:04:45;37.67;;;33.87;;
14326;SDS011;7247;53.330;-1.180;2023-09-08T10:07:13;37.58;;;33.75;;
14326;SDS011;7247;53.330;-1.180;2023-09-08T10:09:40;36.65;;;33.22;;
14326;SDS011;7247;53.330;-1.180;2023-09-08T10:12:07;33.95;;;30.92;;
14326;SDS011;7247;53.330;-1.180;2023-09-08T10:14:35;35.95;;;32.55;;
14326;SDS011;7247;53.330;-1.180;2023-09-08T10:17:03;33.30;;;30.10;;
14326;SDS011;7247;53.330;-1.180;2023-09-08T10:19:31;32.83;;;30.02;;
14326;SDS011;7247;53.330;-1.180;2023-09-08T10:22:04;31.48;;;28.63;;
14326;SDS011;7247;53.330;-1.180;2023-09-08T10:24:32;31.63;;;28.88;;
14326;SDS011;7247;53.330;-1.180;2023-09-08T10:27:00;30.40;;;27.50;;
14326;SDS011;7247;53.330;-1.180;2023-09-08T10:29:28;32.58;;;29.30;;
14326;SDS011;7247;53.330;-1.180;2023-09-08T10:31:55;33.47;;;30.25;;
14326;SDS011;7247;53.330;-1.180;2023-09-08T10:34:24;30.85;;;27.70;;
14326;SDS011;7247;53.330;-1.180;2023-09-08T10:36:51;29.75;;;26.98;;
14326;SDS011;7247;53.330;-1.180;2023-09-08T10:39:27;29.25;;;26.63;;
14326;SDS011;7247;53.330;-1.180;2023-09-08T10:42:00;29.10;;;26.25;;
14326;SDS011;7247;53.330;-1.180;2023-09-08T10:44:47;28.77;;;26.17;;
14326;SDS011;7247;53.330;-1.180;2023-09-08T10:47:22;28.88;;;26.30;;
14326;SDS011;7247;53.330;-1.180;2023-09-08T10:49:50;28.35;;;25.75;;
14326;SDS011;7247;53.330;-1.180;2023-09-08T10:52:20;27.65;;;25.08;;
14326;SDS011;7247;53.330;-1.180;2023-09-08T10:54:48;26.35;;;23.65;;
14326;SDS011;7247;53.330;-1.180;2023-09-08T10:57:16;25.88;;;23.63;;
14326;SDS011;7247;53.330;-1.180;2023-09-08T10:59:44;24.55;;;22.15;;
14326;SDS011;7247;53.330;-1.180;2023-09-08T11:02:25;23.92;;;21.58;;
14326;SDS011;7247;53.330;-1.180;2023-09-08T11:04:59;24.80;;;22.50;;
14326;SDS011;7247;53.330;-1.180;2023-09-08T11:07:25;27.33;;;24.60;;
14326;SDS011;7247;53.330;-1.180;2023-09-08T11:09:51;28.40;;;25.73;;
14326;SDS011;7247;53.330;-1.180;2023-09-08T11:12:18;26.40;;;24.10;;
14326;SDS011;7247;53.330;-1.180;2023-09-08T11:14:48;24.95;;;22.70;;
14326;SDS011;7247;53.330;-1.180;2023-09-08T11:17:14;27.27;;;24.85;;
14326;SDS011;7247;53.330;-1.180;2023-09-08T11:19:45;23.30;;;21.20;;
14326;SDS011;7247;53.330;-1.180;2023-09-08T11:22:12;23.67;;;21.33;;
14326;SDS011;7247;53.330;-1.180;2023-09-08T11:24:41;24.58;;;22.48;;
14326;SDS011;7247;53.330;-1.180;2023-09-08T11:27:07;22.42;;;20.45;;
14326;SDS011;7247;53.330;-1.180;2023-09-08T11:29:34;22.95;;;20.75;;
14326;SDS011;7247;53.330;-1.180;2023-09-08T11:32:00;22.33;;;20.13;;
14326;SDS011;7247;53.330;-1.180;2023-09-08T11:34:28;23.02;;;20.92;;
14326;SDS011;7247;53.330;-1.180;2023-09-08T11:36:54;25.50;;;23.00;;
14326;SDS011;7247;53.330;-1.180;2023-09-08T11:39:24;24.40;;;22.05;;
14326;SDS011;7247;53.330;-1.180;2023-09-08T11:41:51;22.55;;;20.65;;
14326;SDS011;7247;53.330;-1.180;2023-09-08T11:44:18;22.55;;;20.55;;
14326;SDS011;7247;53.330;-1.180;2023-09-08T11:46:45;21.95;;;19.95;;
14326;SDS011;7247;53.330;-1.180;2023-09-08T11:49:13;20.20;;;18.50;;
14326;SDS011;7247;53.330;-1.180;2023-09-08T11:51:39;21.50;;;19.38;;
14326;SDS011;7247;53.330;-1.180;2023-09-08T11:54:06;21.30;;;19.38;;
14326;SDS011;7247;53.330;-1.180;2023-09-08T11:56:34;22.70;;;20.58;;
14326;SDS011;7247;53.330;-1.180;2023-09-08T11:59:00;22.05;;;18.92;;
14326;SDS011;7247;53.330;-1.180;2023-09-08T12:01:27;22.17;;;20.10;;
14326;SDS011;7247;53.330;-1.180;2023-09-08T12:03:54;21.15;;;19.23;;
14326;SDS011;7247;53.330;-1.180;2023-09-08T12:06:23;22.27;;;19.95;;
14326;SDS011;7247;53.330;-1.180;2023-09-08T12:08:49;20.85;;;18.85;;
14326;SDS011;7247;53.330;-1.180;2023-09-08T12:11:16;19.80;;;17.80;;
14326;SDS011;7247;53.330;-1.180;2023-09-08T12:13:44;19.75;;;17.85;;
14326;SDS011;7247;53.330;-1.180;2023-09-08T12:16:19;19.40;;;17.45;;
14326;SDS011;7247;53.330;-1.180;2023-09-08T12:18:48;18.85;;;17.15;;
14326;SDS011;7247;53.330;-1.180;2023-09-08T12:21:15;18.55;;;16.75;;
14326;SDS011;7247;53.330;-1.180;2023-09-08T12:23:47;20.50;;;17.52;;
14326;SDS011;7247;53.330;-1.180;2023-09-08T12:26:15;17.85;;;16.15;;
14326;SDS011;7247;53.330;-1.180;2023-09-08T12:28:41;19.52;;;17.63;;
14326;SDS011;7247;53.330;-1.180;2023-09-08T12:31:09;17.45;;;15.80;;
14326;SDS011;7247;53.330;-1.180;2023-09-08T12:33:36;18.60;;;16.77;;
14326;SDS011;7247;53.330;-1.180;2023-09-08T12:36:09;18.95;;;16.85;;
14326;SDS011;7247;53.330;-1.180;2023-09-08T12:38:36;15.88;;;14.07;;
14326;SDS011;7247;53.330;-1.180;2023-09-08T12:41:02;17.63;;;14.80;;
14326;SDS011;7247;53.330;-1.180;2023-09-08T12:43:29;16.02;;;14.48;;
14326;SDS011;7247;53.330;-1.180;2023-09-08T12:45:55;17.90;;;15.77;;
14326;SDS011;7247;53.330;-1.180;2023-09-08T12:48:23;14.73;;;13.32;;
14326;SDS011;7247;53.330;-1.180;2023-09-08T12:50:50;16.60;;;13.15;;
14326;SDS011;7247;53.330;-1.180;2023-09-08T12:53:16;15.95;;;14.35;;
14326;SDS011;7247;53.330;-1.180;2023-09-08T12:55:43;14.85;;;13.35;;
14326;SDS011;7247;53.330;-1.180;2023-09-08T12:58:09;20.88;;;13.85;;
14326;SDS011;7247;53.330;-1.180;2023-09-08T13:00:35;14.07;;;12.30;;
14326;SDS011;7247;53.330;-1.180;2023-09-08T13:03:02;12.82;;;11.57;;
14326;SDS011;7247;53.330;-1.180;2023-09-08T13:05:30;15.40;;;14.00;;
14326;SDS011;7247;53.330;-1.180;2023-09-08T13:07:57;13.63;;;12.32;;
14326;SDS011;7247;53.330;-1.180;2023-09-08T13:10:26;14.85;;;10.82;;
14326;SDS011;7247;53.330;-1.180;2023-09-08T13:12:52;12.50;;;11.30;;
14326;SDS011;7247;53.330;-1.180;2023-09-08T13:15:19;13.23;;;11.93;;
14326;SDS011;7247;53.330;-1.180;2023-09-08T13:17:46;13.38;;;11.32;;
14326;SDS011;7247;53.330;-1.180;2023-09-08T13:20:12;16.38;;;11.27;;
14326;SDS011;7247;53.330;-1.180;2023-09-08T13:22:40;11.73;;;10.63;;
14326;SDS011;7247;53.330;-1.180;2023-09-08T13:25:07;14.63;;;12.85;;
14326;SDS011;7247;53.330;-1.180;2023-09-08T13:27:33;12.57;;;11.27;;
14326;SDS011;7247;53.330;-1.180;2023-09-08T13:30:07;14.55;;;10.80;;
14326;SDS011;7247;53.330;-1.180;2023-09-08T13:32:34;12.95;;;9.50;;
14326;SDS011;7247;53.330;-1.180;2023-09-08T13:35:00;11.95;;;9.98;;
14326;SDS011;7247;53.330;-1.180;2023-09-08T13:37:27;12.18;;;10.45;;
14326;SDS011;7247;53.330;-1.180;2023-09-08T13:39:57;14.65;;;13.13;;
14326;SDS011;7247;53.330;-1.180;2023-09-08T13:42:23;11.77;;;10.57;;
14326;SDS011;7247;53.330;-1.180;2023-09-08T13:44:50;13.40;;;9.77;;
14326;SDS011;7247;53.330;-1.180;2023-09-08T13:47:16;11.73;;;9.98;;
14326;SDS011;7247;53.330;-1.180;2023-09-08T13:49:42;10.05;;;9.00;;
14326;SDS011;7247;53.330;-1.180;2023-09-08T13:52:09;13.43;;;10.57;;
14326;SDS011;7247;53.330;-1.180;2023-09-08T13:54:35;12.20;;;10.77;;
14326;SDS011;7247;53.330;-1.180;2023-09-08T13:57:03;11.98;;;10.32;;
14326;SDS011;7247;53.330;-1.180;2023-09-08T13:59:30;13.05;;;11.30;;
14326;SDS011;7247;53.330;-1.180;2023-09-08T14:01:56;12.60;;;10.77;;
14326;SDS011;7247;53.330;-1.180;2023-09-08T14:04:24;13.52;;;11.38;;
14326;SDS011;7247;53.330;-1.180;2023-09-08T14:06:50;12.93;;;8.68;;
14326;SDS011;7247;53.330;-1.180;2023-09-08T14:09:17;10.25;;;9.10;;
14326;SDS011;7247;53.330;-1.180;2023-09-08T14:11:43;10.80;;;8.68;;
14326;SDS011;7247;53.330;-1.180;2023-09-08T14:14:11;10.13;;;9.27;;